Wallace, Nebraska
Current Conditions -  °F | °C
As of 10:53 PM on Friday 19 Dec 2014 (Local Time) from KLBF Reporting Station
Haze Haze  
Wind Chill: 11°   Ceiling: Unl
Heat Index: 19°   Visibility: 4mi
Dew Point: 17°   Wind: 6mph
Humidity: 92%   Direction: 320°NW
Pressure: 30.02"   Gusts: NA
Location:  40.84°N, 101.16°W
Report Text: KLBF 200453Z AUTO 32005KT 4SM BR CLR M07/M08 A3002 RMK AO2 SLP200 I1000 T10721083
Loading
Personal Weather Stations






























Interactive Weather Map New forecast layout! Learn more

10-Day Weather Forecast

Advertisements
Track Severe Weather on mobile